createdAt,value
2019-03-01T00:03:32.429Z,92.13
2019-03-01T00:09:13.633Z,102.20
2019-03-01T00:15:52.701Z,96.23
2019-03-01T00:21:20.570Z,94.83
2019-03-01T00:26:44.212Z,96.33
2019-03-01T00:32:13.033Z,96.33
2019-03-01T00:37:48.387Z,95.23
2019-03-01T00:43:49.390Z,77.53
2019-03-01T00:48:54.831Z,98.60
2019-03-01T00:54:00.302Z,102.77
2019-03-01T00:59:06.430Z,88.07
2019-03-01T01:04:14.224Z,93.30
2019-03-01T01:09:20.107Z,87.80
2019-03-01T01:14:25.554Z,96.37
2019-03-01T01:19:31.056Z,98.10
2019-03-01T01:24:36.503Z,88.73
2019-03-01T01:29:42.042Z,84.03
2019-03-01T01:34:47.521Z,81.23
2019-03-01T01:39:53.082Z,80.70
2019-03-01T01:44:58.530Z,90.20
2019-03-01T01:50:04.243Z,95.90
2019-03-01T01:55:09.738Z,94.73
2019-03-01T02:00:15.555Z,87.70
2019-03-01T02:05:21.272Z,83.20
2019-03-01T02:10:27.097Z,77.40
2019-03-01T02:15:33.224Z,93.63
2019-03-01T02:20:39.004Z,85.93
2019-03-01T02:25:44.447Z,75.93
2019-03-01T02:30:50.315Z,87.93
2019-03-01T02:35:56.087Z,89.20
2019-03-01T02:41:01.943Z,75.77
2019-03-01T02:46:07.471Z,79.97
2019-03-01T02:51:12.950Z,89.13
2019-03-01T02:56:18.776Z,77.63
2019-03-01T03:01:24.543Z,82.17
2019-03-01T03:06:40.033Z,77.50
2019-03-01T03:11:45.585Z,78.97
2019-03-01T03:16:51.055Z,81.20
2019-03-01T03:21:56.513Z,72.07
2019-03-01T03:27:02.489Z,74.30
2019-03-01T03:32:07.932Z,79.70
2019-03-01T03:37:13.764Z,77.10
2019-03-01T03:42:19.249Z,75.93
2019-03-01T03:47:32.281Z,72.53
2019-03-01T03:52:38.450Z,72.00
2019-03-01T03:57:43.989Z,86.37
2019-03-01T04:02:49.436Z,74.17
2019-03-01T04:07:55.243Z,67.63
2019-03-01T04:13:01.044Z,68.77
2019-03-01T04:18:06.485Z,83.17
2019-03-01T04:23:11.935Z,73.57
2019-03-01T04:28:17.391Z,78.37
2019-03-01T04:33:23.254Z,71.57
2019-03-01T04:38:28.706Z,77.90
2019-03-01T04:43:34.198Z,81.73
2019-03-01T04:48:40.098Z,74.27
2019-03-01T04:53:45.619Z,75.10
2019-03-01T04:58:51.866Z,77.33
2019-03-01T05:03:58.015Z,65.57
2019-03-01T05:09:03.829Z,74.73
2019-03-01T05:14:09.305Z,73.07
2019-03-01T05:19:14.832Z,78.87
2019-03-01T05:24:20.339Z,74.13
2019-03-01T05:29:26.253Z,71.13
2019-03-01T05:34:31.746Z,73.63
2019-03-01T05:39:37.216Z,79.13
2019-03-01T05:44:43.067Z,79.07
2019-03-01T05:49:48.694Z,69.50
2019-03-01T05:54:54.235Z,66.53
2019-03-01T05:59:59.679Z,85.23
2019-03-01T06:05:14.307Z,88.57
2019-03-01T06:11:36.802Z,82.20
2019-03-01T06:17:01.721Z,75.77
2019-03-01T06:24:25.235Z,75.13
2019-03-01T06:29:49.397Z,76.17
2019-03-01T06:36:19.604Z,73.20
2019-03-01T06:43:48.335Z,78.83
2019-03-01T06:49:00.908Z,83.03
2019-03-01T06:54:06.772Z,98.47
2019-03-01T06:59:12.295Z,75.23
2019-03-01T07:04:18.904Z,85.37
2019-03-01T07:09:24.401Z,87.30
2019-03-01T07:14:29.896Z,84.20
2019-03-01T07:19:35.742Z,86.67
2019-03-01T07:24:41.215Z,77.63
2019-03-01T07:29:46.769Z,92.73
2019-03-01T07:34:52.357Z,80.60
2019-03-01T07:39:57.875Z,90.40
2019-03-01T07:45:03.640Z,85.37
2019-03-01T07:50:10.261Z,84.63
2019-03-01T07:55:15.930Z,82.90
2019-03-01T08:00:21.411Z,86.00
2019-03-01T08:05:26.914Z,83.77
2019-03-01T08:10:32.391Z,85.60
2019-03-01T08:15:40.775Z,93.23
2019-03-01T08:20:44.019Z,93.47
2019-03-01T08:25:49.474Z,91.37
2019-03-01T08:30:54.943Z,83.90
2019-03-01T08:36:02.502Z,74.47
2019-03-01T08:41:06.555Z,81.77
2019-03-01T08:46:11.420Z,92.33
2019-03-01T08:51:17.559Z,88.83
2019-03-01T08:56:26.119Z,84.07
2019-03-01T09:01:28.540Z,91.13
2019-03-01T09:06:34.704Z,104.17
2019-03-01T09:11:41.811Z,91.53
2019-03-01T09:16:46.418Z,84.87
2019-03-01T09:21:51.925Z,90.70
2019-03-01T09:26:57.728Z,98.40
2019-03-01T09:32:03.609Z,93.53
2019-03-01T09:37:09.076Z,96.57
2019-03-01T09:42:15.605Z,85.77
2019-03-01T09:47:20.474Z,92.87
2019-03-01T09:52:25.966Z,88.67
2019-03-01T09:57:31.440Z,95.40
2019-03-01T10:02:36.985Z,108.23
2019-03-01T10:07:43.128Z,110.93
2019-03-01T10:12:48.933Z,94.50
2019-03-01T10:17:55.039Z,99.37
2019-03-01T10:23:00.975Z,105.13
2019-03-01T10:28:07.207Z,98.50
2019-03-01T10:33:12.650Z,113.90
2019-03-01T10:38:18.456Z,119.63
2019-03-01T10:43:23.971Z,121.00
2019-03-01T10:48:30.172Z,116.53
2019-03-01T10:53:36.523Z,120.80
2019-03-01T10:58:42.403Z,121.57
2019-03-01T11:03:48.259Z,119.37
2019-03-01T11:08:54.054Z,121.43
2019-03-01T11:13:59.568Z,120.57
2019-03-01T11:19:05.147Z,134.47
2019-03-01T11:24:10.609Z,119.40
2019-03-01T11:29:16.046Z,118.13
2019-03-01T11:34:21.525Z,116.10
2019-03-01T11:39:27.314Z,113.87
2019-03-01T11:44:33.694Z,107.67
2019-03-01T11:49:39.155Z,110.00
2019-03-01T11:54:44.612Z,101.47
2019-03-01T11:59:50.148Z,92.03
2019-03-01T12:04:55.615Z,102.23
2019-03-01T12:10:01.081Z,112.53
2019-03-01T12:15:07.255Z,98.53
2019-03-01T12:20:15.276Z,83.87
2019-03-01T12:25:21.058Z,85.53
2019-03-01T12:30:27.304Z,84.10
2019-03-01T12:35:33.112Z,92.33
2019-03-01T12:40:38.592Z,88.27
2019-03-01T12:45:44.030Z,96.07
2019-03-01T12:50:49.883Z,98.77
2019-03-01T12:55:56.019Z,88.67
2019-03-01T13:01:01.596Z,86.60
2019-03-01T13:06:07.031Z,85.67
2019-03-01T13:11:15.980Z,71.80
2019-03-01T13:16:18.071Z,59.67
2019-03-01T13:21:23.552Z,51.43
2019-03-01T13:26:29.008Z,47.30
2019-03-01T13:31:34.902Z,53.70
2019-03-01T13:36:40.570Z,47.40
2019-03-01T13:41:48.014Z,36.60
2019-03-01T13:46:51.447Z,49.83
2019-03-01T13:51:56.925Z,53.17
2019-03-01T13:57:02.423Z,50.73
2019-03-01T14:02:08.525Z,41.33
2019-03-01T14:07:13.693Z,39.63
2019-03-01T14:12:19.486Z,42.60
2019-03-01T14:17:25.750Z,34.30
2019-03-01T14:22:31.180Z,40.10
2019-03-01T14:27:36.972Z,34.63
2019-03-01T14:32:42.388Z,38.60
2019-03-01T14:37:47.847Z,36.73
2019-03-01T14:42:53.705Z,29.63
2019-03-01T14:47:59.842Z,33.40
2019-03-01T14:53:05.334Z,26.23
2019-03-01T14:58:24.551Z,24.33
2019-03-01T15:03:34.327Z,27.97
2019-03-01T15:08:44.094Z,33.30
2019-03-01T15:13:50.247Z,21.73
2019-03-01T15:18:56.471Z,19.90
2019-03-01T15:24:01.966Z,20.53
2019-03-01T15:29:07.791Z,19.30
2019-03-01T15:34:13.388Z,18.53
2019-03-01T15:39:19.922Z,12.90
2019-03-01T15:44:25.066Z,16.47
2019-03-01T15:49:30.597Z,16.10
2019-03-01T15:54:36.714Z,18.67
2019-03-01T15:59:44.366Z,18.33
2019-03-01T16:04:47.705Z,7.83
2019-03-01T16:09:53.512Z,18.03
2019-03-01T16:15:00.578Z,12.67
2019-03-01T16:20:05.668Z,13.87
2019-03-01T16:25:13.358Z,20.33
2019-03-01T16:30:18.900Z,18.13
2019-03-01T16:35:25.414Z,15.80
2019-03-01T16:40:31.565Z,19.93
2019-03-01T16:45:37.033Z,22.10
2019-03-01T16:50:43.960Z,40.37
2019-03-01T16:55:49.308Z,31.00
2019-03-01T17:00:54.392Z,51.70
2019-03-01T17:06:00.071Z,46.13
2019-03-01T17:11:06.565Z,50.90
2019-03-01T17:16:11.171Z,34.97
2019-03-01T17:21:16.977Z,27.80
2019-03-01T17:26:22.470Z,23.97
2019-03-01T17:31:28.034Z,28.57
2019-03-01T17:36:33.504Z,21.10
2019-03-01T17:41:44.615Z,18.83
2019-03-01T17:46:44.843Z,19.77
2019-03-01T17:51:53.373Z,21.17
2019-03-01T17:56:57.191Z,28.17
2019-03-01T18:02:02.107Z,23.77
2019-03-01T18:07:07.590Z,22.63
2019-03-01T18:12:13.150Z,22.90
2019-03-01T18:17:18.665Z,26.30
2019-03-01T18:22:26.524Z,21.60
2019-03-01T18:27:30.086Z,18.93
2019-03-01T18:32:35.639Z,25.23
2019-03-01T18:37:41.500Z,25.27
2019-03-01T18:42:47.616Z,21.33
2019-03-01T18:47:53.371Z,24.67
2019-03-01T18:52:59.363Z,23.67
2019-03-01T18:58:05.341Z,25.93
2019-03-01T19:03:10.897Z,28.60
2019-03-01T19:08:16.739Z,32.47
2019-03-01T19:13:24.498Z,27.33
2019-03-01T19:18:27.939Z,21.77
2019-03-01T19:23:33.824Z,23.00
2019-03-01T19:28:39.363Z,19.40
2019-03-01T19:33:44.814Z,22.07
2019-03-01T19:38:50.257Z,24.83
2019-03-01T19:43:57.722Z,18.80
2019-03-01T19:49:01.297Z,17.20
2019-03-01T19:54:08.409Z,23.57
2019-03-01T19:59:19.296Z,18.43
2019-03-01T20:04:24.802Z,17.47
2019-03-01T20:09:30.325Z,22.30
2019-03-01T20:14:35.890Z,19.97
2019-03-01T20:19:41.699Z,18.40
2019-03-01T20:24:47.199Z,22.47
2019-03-01T20:29:59.462Z,24.60
2019-03-01T20:35:05.360Z,24.33
2019-03-01T20:40:10.743Z,33.40
2019-03-01T20:45:25.927Z,21.47
2019-03-01T20:50:29.474Z,13.33
2019-03-01T20:55:37.107Z,21.57
2019-03-01T21:00:41.226Z,75.23
2019-03-01T21:05:46.659Z,53.73
2019-03-01T21:10:52.511Z,37.90
2019-03-01T21:15:58.008Z,17.83
2019-03-01T21:21:03.607Z,23.83
2019-03-01T21:26:12.132Z,16.87
2019-03-01T21:31:14.702Z,14.50
2019-03-01T21:36:22.855Z,13.10
2019-03-01T21:41:26.718Z,18.07
2019-03-01T21:46:34.038Z,17.13
2019-03-01T21:51:38.014Z,17.97
2019-03-01T21:56:55.485Z,12.77
2019-03-01T22:01:48.991Z,12.37
2019-03-01T22:06:56.063Z,15.83
2019-03-01T22:12:00.384Z,14.37
2019-03-01T22:17:06.329Z,12.90
2019-03-01T22:22:11.746Z,12.00
2019-03-01T22:27:17.190Z,13.27
2019-03-01T22:32:22.635Z,13.27
2019-03-01T22:37:28.459Z,11.77
2019-03-01T22:42:34.008Z,12.63
2019-03-01T22:47:39.538Z,18.97
2019-03-01T22:52:45.493Z,15.67
2019-03-01T22:57:51.365Z,11.73
2019-03-01T23:02:56.835Z,16.00
2019-03-01T23:08:02.322Z,14.97
2019-03-01T23:13:08.135Z,15.93
2019-03-01T23:18:13.582Z,13.63
2019-03-01T23:23:23.782Z,14.17
2019-03-01T23:28:24.927Z,15.10
2019-03-01T23:33:31.571Z,12.87
2019-03-01T23:38:36.006Z,8.80
2019-03-01T23:43:41.611Z,13.63
2019-03-01T23:48:48.852Z,15.73
2019-03-01T23:59:12.347Z,14.67
